Himawari 2 — JG5636 — position and weather

sailwx.info

Track history (hours):
 
Tides and Currents Weather Stations Pressure Air Temp Water Temp Dewpoint Dewpoint Depression Visibility Wind Speed Wind Dir Waves Ship Positions

Himawari 2

Last reported at 2016-Apr-26 23:34 UTC. Time now 2016-Apr-29 12:06 UTC.
Position N 36°54' E 141°03'.

Length 161 m; draft 6.5 m.

Type: Cargo ship. MMSI: 431100957.

Date/timePositionNaut miles runAvg speedWind from/ knotsBaromVisibWave heightAir tempDewpointWater temp
2016-Apr-26 23:34N 36°54' E 141°03'1717.0
2016-Apr-26 22:32N 36°37' E 141°02'6218.9
2016-Apr-26 19:15N 35°35' E 140°57'1420.1
2016-Apr-26 18:34N 35°24' E 140°45'2621.4
2016-Apr-26 17:21N 35°04' E 140°26'1720.1
2016-Apr-26 16:32N 34°56' E 140°08'1918.7
2016-Apr-26 15:31N 34°53' E 139°45'1818.6
2016-Apr-26 14:33N 35°11' E 139°46'1413.6
2016-Apr-26 13:34N 35°24' E 139°43'1312.8
2016-Apr-26 12:33N 35°36' E 139°48'0 0.0
2016-Apr-26 11:31N 35°36' E 139°48'0 0.0
2016-Apr-26 10:31N 35°36' E 139°48'0 0.0
2016-Apr-26 09:31N 35°36' E 139°48'0 0.0
2016-Apr-26 08:31N 35°36' E 139°48'0 0.0
2016-Apr-26 07:31N 35°36' E 139°48'0 0.0
2016-Apr-26 06:31N 35°36' E 139°48'0 0.0
2016-Apr-26 05:31N 35°36' E 139°48'0 0.0
2016-Apr-26 04:31N 35°36' E 139°48'0 0.0
2016-Apr-26 03:31N 35°36' E 139°48'0 0.0
2016-Apr-26 02:31N 35°36' E 139°48'0 0.0
2016-Apr-26 01:31N 35°36' E 139°48'0 0.1
2016-Apr-26 00:32N 35°36' E 139°48'8 8.5
2016-Apr-25 23:33N 35°29' E 139°51'1212.4
2016-Apr-25 22:33N 35°17' E 139°45'1514.9
2016-Apr-25 21:33N 35°03' E 139°41'24019.9
2016-Apr-25 09:30N 34°00' E 134°59'2223.8
2016-Apr-25 08:33N 34°23' E 135°00'2221.6
2016-Apr-25 07:33N 34°37' E 135°20'4 3.3
2016-Apr-25 06:13N 34°40' E 135°24'0 0.0
2016-Apr-25 05:25N 34°40' E 135°24'0 0.0
2016-Apr-25 04:25N 34°40' E 135°24'0 0.0
2016-Apr-25 03:31N 34°40' E 135°24'0 0.0
2016-Apr-25 02:25N 34°40' E 135°24'0 0.0
2016-Apr-25 01:25N 34°40' E 135°24'0 0.0
2016-Apr-25 00:31N 34°40' E 135°24'0 0.0
2016-Apr-24 23:31N 34°40' E 135°24'0 0.0
2016-Apr-24 22:13N 34°40' E 135°24'0 0.0
2016-Apr-24 21:31N 34°40' E 135°24'0 0.0
2016-Apr-24 20:31N 34°40' E 135°24'0 0.0
2016-Apr-24 19:31N 34°40' E 135°24'0 0.0
2016-Apr-24 18:31N 34°40' E 135°24'0 0.0
2016-Apr-24 17:31N 34°40' E 135°24'0 0.0
2016-Apr-24 16:31N 34°40' E 135°24'0 0.0
2016-Apr-24 15:25N 34°40' E 135°24'0 0.0
2016-Apr-24 14:25N 34°40' E 135°24'0 0.0
2016-Apr-24 13:31N 34°40' E 135°24'0 0.0
2016-Apr-24 12:31N 34°40' E 135°24'0 0.0
2016-Apr-24 11:31N 34°40' E 135°24'0 0.0
2016-Apr-24 10:13N 34°40' E 135°24'0 0.0
2016-Apr-24 09:31N 34°40' E 135°24'0 0.0
2016-Apr-24 08:31N 34°40' E 135°24'0 0.0
2016-Apr-24 07:31N 34°40' E 135°24'0 0.0
2016-Apr-24 06:31N 34°40' E 135°24'0 0.0
2016-Apr-24 05:31N 34°40' E 135°24'0 0.0
2016-Apr-24 04:25N 34°40' E 135°24'0 0.0
2016-Apr-24 03:31N 34°40' E 135°24'0 0.0
2016-Apr-24 02:25N 34°40' E 135°24'5 5.8
2016-Apr-24 01:34N 34°36' E 135°20'2019.7
2016-Apr-24 00:33N 34°22' E 135°04'1817.6
2016-Apr-23 23:33N 34°04' E 135°00'17215.5
2016-Apr-23 12:28N 34°25' E 138°27'5818.5
2016-Apr-23 09:21N 34°55' E 139°27'1619.4
2016-Apr-23 08:33N 35°06' E 139°40'1312.9
2016-Apr-23 07:34N 35°18' E 139°44'1414.0
2016-Apr-23 06:33N 35°31' E 139°51'6 6.0
2016-Apr-23 05:31N 35°36' E 139°48'0 0.0
2016-Apr-23 04:31N 35°36' E 139°48'0 0.0
2016-Apr-23 03:31N 35°36' E 139°48'0 0.0
2016-Apr-23 02:31N 35°36' E 139°48'4 3.7
2016-Apr-23 01:33N 35°33' E 139°50'1211.8
2016-Apr-23 00:33N 35°22' E 139°45'1211.5
2016-Apr-22 23:33N 35°11' E 139°47'1615.6
2016-Apr-22 22:33N 34°55' E 139°45'1919.4
2016-Apr-22 21:33N 34°59' E 140°09'2222.0
2016-Apr-22 20:33N 35°13' E 140°30'2222.3
2016-Apr-22 19:33N 35°30' E 140°48'2222.4
2016-Apr-22 18:33N 35°50' E 140°58'2423.5
2016-Apr-22 17:31N 36°14' E 141°02'2323.4
2016-Apr-22 16:34N 36°37' E 141°06'  
2016-Apr-19 18:33N 35°21' E 140°41'2118.1
2016-Apr-19 17:23N 35°04' E 140°26'1417.0
2016-Apr-19 16:33N 34°58' E 140°10'1716.6
2016-Apr-19 15:31N 34°50' E 139°51'1616.8
2016-Apr-19 14:34N 35°05' E 139°43'1413.5
2016-Apr-19 13:33N 35°19' E 139°43'1515.4
2016-Apr-19 12:33N 35°33' E 139°50'4 3.6
2016-Apr-19 11:31N 35°36' E 139°48'0 0.0
2016-Apr-19 10:31N 35°36' E 139°48'0 0.0
2016-Apr-19 09:31N 35°36' E 139°48'0 0.0
2016-Apr-19 08:31N 35°36' E 139°48'0 0.0
2016-Apr-19 07:31N 35°36' E 139°48'0 0.0
2016-Apr-19 06:31N 35°36' E 139°48'0 0.0
2016-Apr-19 05:31N 35°36' E 139°48'0 0.0
2016-Apr-19 04:31N 35°36' E 139°48'0 0.0
2016-Apr-19 03:31N 35°36' E 139°48'0 0.0
2016-Apr-19 02:31N 35°36' E 139°48'0 0.0
2016-Apr-19 01:31N 35°36' E 139°48'0 0.0
2016-Apr-19 00:31N 35°36' E 139°48'2 1.9
2016-Apr-18 23:33N 35°35' E 139°48'1312.7
2016-Apr-18 22:33N 35°22' E 139°45'1313.1
2016-Apr-18 21:34N 35°09' E 139°47'2323.2
2016-Apr-18 20:33N 34°53' E 139°26'7323.0
2016-Apr-18 17:23N 34°13' E 138°12'16220.5
2016-Apr-18 09:31N 33°55' E 134°58'2223.4
2016-Apr-18 08:33N 34°18' E 134°58'2222.0
2016-Apr-18 07:33N 34°34' E 135°16'9 8.5
2016-Apr-18 06:32N 34°40' E 135°24'0 0.0
2016-Apr-18 04:32N 34°40' E 135°24'0 0.0
2016-Apr-18 03:26N 34°40' E 135°24'0 0.0
2016-Apr-18 02:32N 34°40' E 135°24'0 0.0
2016-Apr-18 01:32N 34°40' E 135°24'0 0.0
2016-Apr-18 00:32N 34°40' E 135°24'0 0.0
2016-Apr-17 23:32N 34°40' E 135°24'0 0.0
2016-Apr-17 22:32N 34°40' E 135°24'0 0.0
2016-Apr-17 21:32N 34°40' E 135°24'0 0.0
2016-Apr-17 20:32N 34°40' E 135°24'0 0.0
2016-Apr-17 19:32N 34°40' E 135°24'0 0.0
2016-Apr-17 18:32N 34°40' E 135°24'0 0.0
2016-Apr-17 17:26N 34°40' E 135°24'0 0.0
2016-Apr-17 16:32N 34°40' E 135°24'0 0.0
2016-Apr-17 15:32N 34°40' E 135°24'0 0.0
2016-Apr-17 14:26N 34°40' E 135°24'0 0.0
2016-Apr-17 13:26N 34°40' E 135°24'0 0.0
2016-Apr-17 12:32N 34°40' E 135°24'0 0.0
2016-Apr-17 11:32N 34°40' E 135°24'0 0.0
2016-Apr-17 10:32N 34°40' E 135°24'0 0.0
2016-Apr-17 09:32N 34°40' E 135°24'0 0.0
2016-Apr-17 08:32N 34°40' E 135°24'0 0.0
2016-Apr-17 07:32N 34°40' E 135°24'0 0.0
2016-Apr-17 06:32N 34°40' E 135°24'0 0.0
2016-Apr-17 05:32N 34°40' E 135°24'3 3.5
2016-Apr-17 04:33N 34°37' E 135°21'1413.4
2016-Apr-17 03:33N 34°28' E 135°10'9 9.1
2016-Apr-17 02:34N 34°21' E 135°03'1716.6
2016-Apr-17 01:33N 34°04' E 135°00'  
Track history (hours):
 
Tides and Currents Weather Stations Pressure Air Temp Water Temp Dewpoint Dewpoint Depression Visibility Wind Speed Wind Dir Waves Ship Positions

Himawari 2

Last reported at 2016-Apr-26 23:34 UTC. Time now 2016-Apr-29 12:06 UTC.
Position N 36°54' E 141°03'.

Length 161 m; draft 6.5 m.

Type: Cargo ship. MMSI: 431100957.

Date/timePositionNaut miles runAvg speedWind from/ knotsBaromVisibWave heightAir tempDewpointWater temp
2016-Apr-26 23:34N 36°54' E 141°03'1717.0
2016-Apr-26 22:32N 36°37' E 141°02'6218.9
2016-Apr-26 19:15N 35°35' E 140°57'1420.1
2016-Apr-26 18:34N 35°24' E 140°45'2621.4
2016-Apr-26 17:21N 35°04' E 140°26'1720.1
2016-Apr-26 16:32N 34°56' E 140°08'1918.7
2016-Apr-26 15:31N 34°53' E 139°45'1818.6
2016-Apr-26 14:33N 35°11' E 139°46'1413.6
2016-Apr-26 13:34N 35°24' E 139°43'1312.8
2016-Apr-26 12:33N 35°36' E 139°48'0 0.0
2016-Apr-26 11:31N 35°36' E 139°48'0 0.0
2016-Apr-26 10:31N 35°36' E 139°48'0 0.0
2016-Apr-26 09:31N 35°36' E 139°48'0 0.0
2016-Apr-26 08:31N 35°36' E 139°48'0 0.0
2016-Apr-26 07:31N 35°36' E 139°48'0 0.0
2016-Apr-26 06:31N 35°36' E 139°48'0 0.0
2016-Apr-26 05:31N 35°36' E 139°48'0 0.0
2016-Apr-26 04:31N 35°36' E 139°48'0 0.0
2016-Apr-26 03:31N 35°36' E 139°48'0 0.0
2016-Apr-26 02:31N 35°36' E 139°48'0 0.0
2016-Apr-26 01:31N 35°36' E 139°48'0 0.1
2016-Apr-26 00:32N 35°36' E 139°48'8 8.5
2016-Apr-25 23:33N 35°29' E 139°51'1212.4
2016-Apr-25 22:33N 35°17' E 139°45'1514.9
2016-Apr-25 21:33N 35°03' E 139°41'24019.9
2016-Apr-25 09:30N 34°00' E 134°59'2223.8
2016-Apr-25 08:33N 34°23' E 135°00'2221.6
2016-Apr-25 07:33N 34°37' E 135°20'4 3.3
2016-Apr-25 06:13N 34°40' E 135°24'0 0.0
2016-Apr-25 05:25N 34°40' E 135°24'0 0.0
2016-Apr-25 04:25N 34°40' E 135°24'0 0.0
2016-Apr-25 03:31N 34°40' E 135°24'0 0.0
2016-Apr-25 02:25N 34°40' E 135°24'0 0.0
2016-Apr-25 01:25N 34°40' E 135°24'0 0.0
2016-Apr-25 00:31N 34°40' E 135°24'0 0.0
2016-Apr-24 23:31N 34°40' E 135°24'0 0.0
2016-Apr-24 22:13N 34°40' E 135°24'0 0.0
2016-Apr-24 21:31N 34°40' E 135°24'0 0.0
2016-Apr-24 20:31N 34°40' E 135°24'0 0.0
2016-Apr-24 19:31N 34°40' E 135°24'0 0.0
2016-Apr-24 18:31N 34°40' E 135°24'0 0.0
2016-Apr-24 17:31N 34°40' E 135°24'0 0.0
2016-Apr-24 16:31N 34°40' E 135°24'0 0.0
2016-Apr-24 15:25N 34°40' E 135°24'0 0.0
2016-Apr-24 14:25N 34°40' E 135°24'0 0.0
2016-Apr-24 13:31N 34°40' E 135°24'0 0.0
2016-Apr-24 12:31N 34°40' E 135°24'0 0.0
2016-Apr-24 11:31N 34°40' E 135°24'0 0.0
2016-Apr-24 10:13N 34°40' E 135°24'0 0.0
2016-Apr-24 09:31N 34°40' E 135°24'0 0.0
2016-Apr-24 08:31N 34°40' E 135°24'0 0.0
2016-Apr-24 07:31N 34°40' E 135°24'0 0.0
2016-Apr-24 06:31N 34°40' E 135°24'0 0.0
2016-Apr-24 05:31N 34°40' E 135°24'0 0.0
2016-Apr-24 04:25N 34°40' E 135°24'0 0.0
2016-Apr-24 03:31N 34°40' E 135°24'0 0.0
2016-Apr-24 02:25N 34°40' E 135°24'5 5.8
2016-Apr-24 01:34N 34°36' E 135°20'2019.7
2016-Apr-24 00:33N 34°22' E 135°04'1817.6
2016-Apr-23 23:33N 34°04' E 135°00'17215.5
2016-Apr-23 12:28N 34°25' E 138°27'5818.5
2016-Apr-23 09:21N 34°55' E 139°27'1619.4
2016-Apr-23 08:33N 35°06' E 139°40'1312.9
2016-Apr-23 07:34N 35°18' E 139°44'1414.0
2016-Apr-23 06:33N 35°31' E 139°51'6 6.0
2016-Apr-23 05:31N 35°36' E 139°48'0 0.0
2016-Apr-23 04:31N 35°36' E 139°48'0 0.0
2016-Apr-23 03:31N 35°36' E 139°48'0 0.0
2016-Apr-23 02:31N 35°36' E 139°48'4 3.7
2016-Apr-23 01:33N 35°33' E 139°50'1211.8
2016-Apr-23 00:33N 35°22' E 139°45'1211.5
2016-Apr-22 23:33N 35°11' E 139°47'1615.6
2016-Apr-22 22:33N 34°55' E 139°45'1919.4
2016-Apr-22 21:33N 34°59' E 140°09'2222.0
2016-Apr-22 20:33N 35°13' E 140°30'2222.3
2016-Apr-22 19:33N 35°30' E 140°48'2222.4
2016-Apr-22 18:33N 35°50' E 140°58'2423.5
2016-Apr-22 17:31N 36°14' E 141°02'2323.4
2016-Apr-22 16:34N 36°37' E 141°06'  
2016-Apr-19 18:33N 35°21' E 140°41'2118.1
2016-Apr-19 17:23N 35°04' E 140°26'1417.0
2016-Apr-19 16:33N 34°58' E 140°10'1716.6
2016-Apr-19 15:31N 34°50' E 139°51'1616.8
2016-Apr-19 14:34N 35°05' E 139°43'1413.5
2016-Apr-19 13:33N 35°19' E 139°43'1515.4
2016-Apr-19 12:33N 35°33' E 139°50'4 3.6
2016-Apr-19 11:31N 35°36' E 139°48'0 0.0
2016-Apr-19 10:31N 35°36' E 139°48'0 0.0
2016-Apr-19 09:31N 35°36' E 139°48'0 0.0
2016-Apr-19 08:31N 35°36' E 139°48'0 0.0
2016-Apr-19 07:31N 35°36' E 139°48'0 0.0
2016-Apr-19 06:31N 35°36' E 139°48'0 0.0
2016-Apr-19 05:31N 35°36' E 139°48'0 0.0
2016-Apr-19 04:31N 35°36' E 139°48'0 0.0
2016-Apr-19 03:31N 35°36' E 139°48'0 0.0
2016-Apr-19 02:31N 35°36' E 139°48'0 0.0
2016-Apr-19 01:31N 35°36' E 139°48'0 0.0
2016-Apr-19 00:31N 35°36' E 139°48'2 1.9
2016-Apr-18 23:33N 35°35' E 139°48'1312.7
2016-Apr-18 22:33N 35°22' E 139°45'1313.1
2016-Apr-18 21:34N 35°09' E 139°47'2323.2
2016-Apr-18 20:33N 34°53' E 139°26'7323.0
2016-Apr-18 17:23N 34°13' E 138°12'16220.5
2016-Apr-18 09:31N 33°55' E 134°58'2223.4
2016-Apr-18 08:33N 34°18' E 134°58'2222.0
2016-Apr-18 07:33N 34°34' E 135°16'9 8.5
2016-Apr-18 06:32N 34°40' E 135°24'0 0.0
2016-Apr-18 04:32N 34°40' E 135°24'0 0.0
2016-Apr-18 03:26N 34°40' E 135°24'0 0.0
2016-Apr-18 02:32N 34°40' E 135°24'0 0.0
2016-Apr-18 01:32N 34°40' E 135°24'0 0.0
2016-Apr-18 00:32N 34°40' E 135°24'0 0.0
2016-Apr-17 23:32N 34°40' E 135°24'0 0.0
2016-Apr-17 22:32N 34°40' E 135°24'0 0.0
2016-Apr-17 21:32N 34°40' E 135°24'0 0.0
2016-Apr-17 20:32N 34°40' E 135°24'0 0.0
2016-Apr-17 19:32N 34°40' E 135°24'0 0.0
2016-Apr-17 18:32N 34°40' E 135°24'0 0.0
2016-Apr-17 17:26N 34°40' E 135°24'0 0.0
2016-Apr-17 16:32N 34°40' E 135°24'0 0.0
2016-Apr-17 15:32N 34°40' E 135°24'0 0.0
2016-Apr-17 14:26N 34°40' E 135°24'0 0.0
2016-Apr-17 13:26N 34°40' E 135°24'0 0.0
2016-Apr-17 12:32N 34°40' E 135°24'0 0.0
2016-Apr-17 11:32N 34°40' E 135°24'0 0.0
2016-Apr-17 10:32N 34°40' E 135°24'0 0.0
2016-Apr-17 09:32N 34°40' E 135°24'0 0.0
2016-Apr-17 08:32N 34°40' E 135°24'0 0.0
2016-Apr-17 07:32N 34°40' E 135°24'0 0.0
2016-Apr-17 06:32N 34°40' E 135°24'0 0.0
2016-Apr-17 05:32N 34°40' E 135°24'3 3.5
2016-Apr-17 04:33N 34°37' E 135°21'1413.4
2016-Apr-17 03:33N 34°28' E 135°10'9 9.1
2016-Apr-17 02:34N 34°21' E 135°03'1716.6
2016-Apr-17 01:33N 34°04' E 135°00'  

Dump ship's entire track history